createdAt,value
2022-09-28T00:01:07.676Z,6.68
2022-09-28T00:03:35.335Z,8.00
2022-09-28T00:06:04.539Z,6.50
2022-09-28T00:08:32.589Z,6.45
2022-09-28T00:11:00.293Z,6.60
2022-09-28T00:13:28.262Z,6.57
2022-09-28T00:16:05.467Z,7.00
2022-09-28T00:18:33.801Z,6.75
2022-09-28T00:21:03.430Z,6.97
2022-09-28T00:23:31.051Z,6.93
2022-09-28T00:26:03.029Z,7.45
2022-09-28T00:28:31.318Z,7.75
2022-09-28T00:30:59.027Z,7.30
2022-09-28T00:33:27.916Z,7.80
2022-09-28T00:35:57.144Z,7.07
2022-09-28T00:38:27.741Z,6.32
2022-09-28T00:40:56.571Z,6.55
2022-09-28T00:43:25.464Z,7.03
2022-09-28T00:45:59.434Z,6.45
2022-09-28T00:48:31.787Z,6.80
2022-09-28T00:51:03.628Z,6.40
2022-09-28T00:53:34.706Z,7.00
2022-09-28T00:56:07.349Z,8.38
2022-09-28T00:58:40.338Z,7.25
2022-09-28T01:01:08.573Z,6.43
2022-09-28T01:03:38.622Z,7.20
2022-09-28T01:06:08.628Z,6.85
2022-09-28T01:08:37.096Z,5.22
2022-09-28T01:11:04.744Z,6.65
2022-09-28T01:13:33.574Z,6.10
2022-09-28T01:16:19.618Z,6.30
2022-09-28T01:18:59.897Z,6.40
2022-09-28T01:21:28.061Z,7.15
2022-09-28T01:24:16.403Z,7.30
2022-09-28T01:26:54.376Z,5.25
2022-09-28T01:29:31.425Z,5.63
2022-09-28T01:32:04.376Z,6.20
2022-09-28T01:34:40.298Z,4.93
2022-09-28T01:37:13.530Z,5.22
2022-09-28T01:39:44.273Z,5.57
2022-09-28T01:42:19.661Z,6.03
2022-09-28T01:44:50.852Z,6.20
2022-09-28T01:47:23.082Z,5.35
2022-09-28T01:49:55.850Z,5.82
2022-09-28T01:52:29.466Z,5.63
2022-09-28T01:55:02.331Z,5.40
2022-09-28T01:57:38.453Z,5.28
2022-09-28T02:00:08.791Z,5.18
2022-09-28T02:02:40.562Z,5.00
2022-09-28T02:05:12.385Z,4.80
2022-09-28T02:07:45.135Z,5.68
2022-09-28T02:10:17.174Z,5.40
2022-09-28T02:12:49.604Z,5.07
2022-09-28T02:15:21.356Z,4.78
2022-09-28T02:17:49.582Z,4.93
2022-09-28T02:20:17.882Z,6.03
2022-09-28T02:22:50.097Z,4.70
2022-09-28T02:25:25.830Z,5.53
2022-09-28T02:27:58.766Z,5.22
2022-09-28T02:30:26.977Z,5.45
2022-09-28T02:32:59.760Z,4.82
2022-09-28T02:35:27.640Z,4.80
2022-09-28T02:37:56.006Z,4.90
2022-09-28T02:40:26.368Z,5.43
2022-09-28T02:43:03.368Z,4.90
2022-09-28T02:45:42.559Z,5.05
2022-09-28T02:48:31.474Z,5.68
2022-09-28T02:51:19.912Z,4.97
2022-09-28T02:54:07.068Z,4.85
2022-09-28T02:56:54.319Z,4.50
2022-09-28T02:59:36.862Z,4.65
2022-09-28T03:02:15.093Z,5.63
2022-09-28T03:04:49.464Z,4.70
2022-09-28T03:07:25.993Z,4.35
2022-09-28T03:10:00.417Z,4.30
2022-09-28T03:12:29.927Z,4.85
2022-09-28T03:15:10.393Z,4.18
2022-09-28T03:17:38.146Z,4.57
2022-09-28T03:20:06.749Z,4.60
2022-09-28T03:22:34.692Z,4.05
2022-09-28T03:25:02.376Z,5.00
2022-09-28T03:27:30.312Z,5.15
2022-09-28T03:29:57.995Z,4.55
2022-09-28T03:32:27.031Z,3.65
2022-09-28T03:34:54.615Z,4.70
2022-09-28T03:37:22.538Z,4.70
2022-09-28T03:39:50.120Z,3.78
2022-09-28T03:42:18.064Z,4.43
2022-09-28T03:44:45.747Z,4.47
2022-09-28T03:47:13.953Z,4.47
2022-09-28T03:49:42.846Z,5.07
2022-09-28T03:52:10.592Z,4.30
2022-09-28T03:54:39.290Z,4.53
2022-09-28T03:57:07.335Z,4.90
2022-09-28T03:59:37.325Z,5.88
2022-09-28T04:02:06.309Z,4.88
2022-09-28T04:04:34.236Z,4.22
2022-09-28T04:07:05.315Z,4.28
2022-09-28T04:09:32.910Z,3.88
2022-09-28T04:12:04.373Z,4.53
2022-09-28T04:14:32.237Z,5.10
2022-09-28T04:16:59.945Z,5.30
2022-09-28T04:19:29.018Z,6.90
2022-09-28T04:21:56.711Z,6.18
2022-09-28T04:24:25.608Z,4.93
2022-09-28T04:27:13.295Z,4.97
2022-09-28T04:29:43.045Z,4.72
2022-09-28T04:32:11.352Z,4.85
2022-09-28T04:34:43.898Z,4.13
2022-09-28T04:37:12.671Z,4.80
2022-09-28T04:39:46.185Z,4.13
2022-09-28T04:42:15.779Z,4.70
2022-09-28T04:44:43.447Z,4.10
2022-09-28T04:47:11.103Z,7.13
2022-09-28T04:49:38.794Z,4.88
2022-09-28T04:52:07.363Z,5.68
2022-09-28T04:54:35.319Z,4.50
2022-09-28T04:57:05.970Z,4.78
2022-09-28T04:59:33.790Z,4.72
2022-09-28T05:02:01.367Z,4.50
2022-09-28T05:04:29.134Z,5.18
2022-09-28T05:06:56.799Z,4.15
2022-09-28T05:09:24.659Z,5.05
2022-09-28T05:11:53.038Z,4.60
2022-09-28T05:14:22.724Z,4.40
2022-09-28T05:16:50.529Z,4.65
2022-09-28T05:19:18.361Z,5.10
2022-09-28T05:21:46.941Z,5.40
2022-09-28T05:24:14.618Z,4.57
2022-09-28T05:26:42.242Z,4.03
2022-09-28T05:29:09.948Z,4.53
2022-09-28T05:31:39.058Z,4.75
2022-09-28T05:34:06.903Z,3.85
2022-09-28T05:36:34.565Z,4.60
2022-09-28T05:39:03.831Z,5.68
2022-09-28T05:41:31.712Z,4.20
2022-09-28T05:43:59.622Z,4.85
2022-09-28T05:46:27.487Z,5.72
2022-09-28T05:48:56.743Z,5.18
2022-09-28T05:51:25.447Z,4.95
2022-09-28T05:53:55.572Z,5.50
2022-09-28T05:56:25.813Z,7.43
2022-09-28T05:58:53.522Z,5.10
2022-09-28T06:01:21.606Z,5.82
2022-09-28T06:03:49.279Z,5.35
2022-09-28T06:06:18.461Z,4.60
2022-09-28T06:08:48.274Z,4.75
2022-09-28T06:11:15.970Z,5.05
2022-09-28T06:13:43.636Z,4.63
2022-09-28T06:16:15.806Z,5.55
2022-09-28T06:18:43.473Z,5.40
2022-09-28T06:21:11.290Z,4.43
2022-09-28T06:23:41.036Z,5.30
2022-09-28T06:26:09.705Z,4.43
2022-09-28T06:28:37.449Z,4.88
2022-09-28T06:31:05.430Z,4.85
2022-09-28T06:33:33.270Z,6.40
2022-09-28T06:36:00.968Z,5.82
2022-09-28T06:38:28.673Z,5.72
2022-09-28T06:40:58.969Z,5.10
2022-09-28T06:43:32.145Z,5.32
2022-09-28T06:46:02.783Z,4.97
2022-09-28T06:51:17.180Z,5.85
2022-09-28T06:53:44.765Z,6.00
2022-09-28T06:56:13.703Z,6.22
2022-09-28T06:58:41.343Z,5.40
2022-09-28T07:01:11.967Z,6.85
2022-09-28T07:03:40.782Z,6.60
2022-09-28T07:06:12.281Z,5.55
2022-09-28T07:08:40.896Z,6.75
2022-09-28T07:11:09.170Z,6.30
2022-09-28T07:13:53.441Z,6.07
2022-09-28T07:16:26.425Z,6.00
2022-09-28T07:18:54.623Z,5.45
2022-09-28T07:21:29.821Z,5.63
2022-09-28T07:23:58.388Z,5.70
2022-09-28T07:26:26.589Z,6.20
2022-09-28T07:28:56.023Z,5.40
2022-09-28T07:31:25.330Z,5.22
2022-09-28T07:33:53.815Z,5.88
2022-09-28T07:36:22.586Z,5.35
2022-09-28T07:38:50.424Z,4.80
2022-09-28T07:41:22.302Z,4.80
2022-09-28T07:43:50.723Z,5.47
2022-09-28T07:46:21.271Z,6.00
2022-09-28T07:48:51.586Z,4.75
2022-09-28T07:51:20.295Z,3.67
2022-09-28T07:53:47.975Z,3.95
2022-09-28T07:56:17.354Z,3.22
2022-09-28T07:58:44.949Z,2.78
2022-09-28T08:01:14.871Z,3.85
2022-09-28T08:03:45.219Z,3.05
2022-09-28T08:06:14.518Z,3.40
2022-09-28T08:08:44.585Z,2.95
2022-09-28T08:11:13.575Z,3.40
2022-09-28T08:13:41.228Z,3.17
2022-09-28T08:16:08.855Z,2.45
2022-09-28T08:18:36.818Z,2.88
2022-09-28T08:21:24.842Z,2.40
2022-09-28T08:23:53.887Z,3.20
2022-09-28T08:26:21.668Z,2.17
2022-09-28T08:28:49.291Z,2.30
2022-09-28T08:31:16.981Z,2.80
2022-09-28T08:33:44.950Z,2.72
2022-09-28T08:36:13.952Z,2.67
2022-09-28T08:38:41.862Z,2.28
2022-09-28T08:41:17.794Z,3.78
2022-09-28T08:44:15.030Z,3.42
2022-09-28T08:46:46.483Z,3.72
2022-09-28T08:49:27.227Z,2.97
2022-09-28T08:52:01.889Z,3.33
2022-09-28T08:54:39.587Z,3.53
2022-09-28T08:57:13.377Z,3.95
2022-09-28T08:59:47.814Z,3.72
2022-09-28T09:02:20.182Z,3.53
2022-09-28T09:07:58.560Z,3.22
2022-09-28T09:10:43.160Z,3.13
2022-09-28T09:13:34.578Z,2.97
2022-09-28T09:16:12.308Z,2.67
2022-09-28T09:18:45.330Z,2.70
2022-09-28T09:21:17.228Z,2.50
2022-09-28T09:23:55.684Z,3.85
2022-09-28T09:26:36.204Z,3.30
2022-09-28T09:29:16.979Z,2.90
2022-09-28T09:32:03.513Z,2.80
2022-09-28T09:34:47.763Z,2.17
2022-09-28T09:37:31.011Z,2.55
2022-09-28T09:43:18.850Z,2.97
2022-09-28T09:46:03.717Z,7.20
2022-09-28T09:48:37.926Z,1.75
2022-09-28T09:51:14.467Z,1.85
2022-09-28T09:53:47.186Z,1.60
2022-09-28T09:56:20.933Z,2.50
2022-09-28T09:58:54.604Z,2.03
2022-09-28T10:01:28.634Z,2.13
2022-09-28T10:03:58.878Z,2.00
2022-09-28T10:06:34.586Z,1.77
2022-09-28T10:09:05.828Z,2.25
2022-09-28T10:11:39.491Z,1.92
2022-09-28T10:14:08.101Z,2.38
2022-09-28T10:16:37.151Z,2.47
2022-09-28T10:19:04.777Z,1.92
2022-09-28T10:21:37.471Z,2.85
2022-09-28T10:24:05.258Z,2.33
2022-09-28T10:26:38.558Z,1.92
2022-09-28T10:29:14.873Z,2.95
2022-09-28T10:31:44.280Z,2.20
2022-09-28T10:34:14.981Z,2.20
2022-09-28T10:36:50.807Z,2.40
2022-09-28T10:39:29.274Z,2.88
2022-09-28T10:42:00.059Z,3.15
2022-09-28T10:44:28.255Z,2.97
2022-09-28T10:47:01.826Z,2.53
2022-09-28T10:49:36.431Z,2.70
2022-09-28T10:52:04.576Z,2.90
2022-09-28T10:54:32.860Z,2.67
2022-09-28T10:57:02.021Z,2.67
2022-09-28T10:59:40.755Z,2.53
2022-09-28T11:02:21.693Z,2.42
2022-09-28T11:04:53.307Z,2.35
2022-09-28T11:07:25.031Z,2.60
2022-09-28T11:09:54.502Z,2.88
2022-09-28T11:12:26.021Z,2.47
2022-09-28T11:14:59.480Z,2.60
2022-09-28T11:17:29.730Z,2.78
2022-09-28T11:19:59.240Z,2.95
2022-09-28T11:22:32.268Z,2.65
2022-09-28T11:25:20.228Z,3.17
2022-09-28T11:27:59.718Z,2.78
2022-09-28T11:30:30.187Z,3.53
2022-09-28T11:33:04.116Z,3.03
2022-09-28T11:35:45.041Z,3.70
2022-09-28T11:38:33.447Z,3.13
2022-09-28T11:41:18.240Z,3.40
2022-09-28T11:44:00.271Z,3.45
2022-09-28T11:46:39.357Z,3.80
2022-09-28T11:49:30.638Z,4.25
2022-09-28T11:52:04.779Z,3.45
2022-09-28T11:54:41.389Z,3.97
2022-09-28T11:57:19.508Z,2.97
2022-09-28T11:59:57.872Z,3.85
2022-09-28T12:02:30.063Z,2.85
2022-09-28T12:05:15.828Z,3.20
2022-09-28T12:07:50.103Z,2.78
2022-09-28T12:10:22.277Z,2.95
2022-09-28T12:12:56.533Z,3.40
2022-09-28T12:15:38.173Z,3.50
2022-09-28T12:18:22.293Z,3.50
2022-09-28T12:20:55.653Z,3.78
2022-09-28T12:23:30.391Z,3.75
2022-09-28T12:26:02.849Z,3.47
2022-09-28T12:28:39.167Z,3.58
2022-09-28T12:31:15.858Z,3.00
2022-09-28T12:33:47.244Z,3.17
2022-09-28T12:36:30.379Z,3.65
2022-09-28T12:39:27.086Z,3.20
2022-09-28T12:42:14.446Z,3.35
2022-09-28T12:45:09.048Z,2.75
2022-09-28T12:48:07.791Z,4.35
2022-09-28T12:50:54.547Z,5.05
2022-09-28T12:53:45.325Z,4.80
2022-09-28T12:56:21.617Z,3.72
2022-09-28T12:59:05.486Z,3.00
2022-09-28T13:01:49.582Z,1.63
2022-09-28T13:04:43.037Z,2.03
2022-09-28T13:07:17.970Z,2.38
2022-09-28T13:09:54.645Z,2.22
2022-09-28T13:12:33.340Z,2.38
2022-09-28T13:15:18.860Z,2.65
2022-09-28T13:17:54.613Z,2.83
2022-09-28T13:20:31.166Z,2.70
2022-09-28T13:23:12.524Z,2.15
2022-09-28T13:25:44.981Z,2.80
2022-09-28T13:28:16.470Z,1.95
2022-09-28T13:30:45.850Z,2.28
2022-09-28T13:33:20.885Z,2.28
2022-09-28T13:35:50.209Z,2.20
2022-09-28T13:38:54.675Z,2.35
2022-09-28T13:41:31.711Z,2.05
2022-09-28T13:44:25.619Z,2.28
2022-09-28T13:47:08.523Z,2.08
2022-09-28T13:49:45.483Z,2.20
2022-09-28T13:52:29.938Z,2.58
2022-09-28T13:55:14.149Z,2.50
2022-09-28T13:57:49.468Z,2.83
2022-09-28T14:00:24.678Z,2.40
2022-09-28T14:02:58.931Z,2.05
2022-09-28T14:05:38.166Z,2.53
2022-09-28T14:08:28.880Z,3.13
2022-09-28T14:10:57.568Z,2.50
2022-09-28T14:13:59.288Z,3.70
2022-09-28T14:16:31.054Z,2.75
2022-09-28T14:19:02.397Z,2.38
2022-09-28T14:22:10.384Z,2.20
2022-09-28T14:25:06.389Z,2.53
2022-09-28T14:27:51.508Z,2.15
2022-09-28T14:30:25.620Z,2.90
2022-09-28T14:32:56.708Z,2.65
2022-09-28T14:35:32.378Z,2.60
2022-09-28T14:38:22.296Z,2.35
2022-09-28T14:41:17.537Z,2.30
2022-09-28T14:43:59.905Z,2.10
2022-09-28T14:46:36.730Z,2.22
2022-09-28T14:49:06.982Z,1.60
2022-09-28T14:51:46.077Z,1.88
2022-09-28T14:54:18.909Z,3.38
2022-09-28T14:57:09.232Z,3.38
2022-09-28T14:59:43.504Z,3.35
2022-09-28T15:02:20.147Z,2.35
2022-09-28T15:04:51.623Z,3.17
2022-09-28T15:07:22.290Z,4.30
2022-09-28T15:09:51.648Z,2.75
2022-09-28T15:12:26.900Z,3.45
2022-09-28T15:14:57.074Z,2.92
2022-09-28T15:17:28.193Z,3.13
2022-09-28T15:20:12.800Z,2.70
2022-09-28T15:22:46.453Z,3.25
2022-09-28T15:25:19.946Z,2.88
2022-09-28T15:27:53.977Z,3.75
2022-09-28T15:30:28.134Z,7.43
2022-09-28T15:33:17.691Z,7.88
2022-09-28T15:35:47.700Z,4.18
2022-09-28T15:38:18.001Z,4.47
2022-09-28T15:40:47.368Z,3.70
2022-09-28T15:43:27.109Z,3.45
2022-09-28T15:46:02.590Z,3.50
2022-09-28T15:48:32.589Z,3.67
2022-09-28T15:51:06.124Z,3.75
2022-09-28T15:53:34.505Z,3.13
2022-09-28T15:56:09.895Z,3.95
2022-09-28T15:58:40.309Z,3.95
2022-09-28T16:01:36.884Z,3.20
2022-09-28T16:04:41.079Z,3.75
2022-09-28T16:07:20.484Z,3.30
2022-09-28T16:09:59.946Z,3.28
2022-09-28T16:12:32.126Z,3.58
2022-09-28T16:15:05.529Z,3.65
2022-09-28T16:17:35.255Z,4.20
2022-09-28T16:20:19.258Z,5.55
2022-09-28T16:22:47.847Z,4.45
2022-09-28T16:25:20.338Z,3.88
2022-09-28T16:27:48.315Z,4.30
2022-09-28T16:30:24.362Z,4.75
2022-09-28T16:32:56.271Z,4.35
2022-09-28T16:35:29.312Z,3.92
2022-09-28T16:38:00.127Z,3.70
2022-09-28T16:40:28.817Z,3.80
2022-09-28T16:43:01.311Z,4.75
2022-09-28T16:45:30.750Z,4.78
2022-09-28T16:47:59.843Z,4.20
2022-09-28T16:50:27.516Z,4.20
2022-09-28T16:53:18.596Z,3.88
2022-09-28T16:55:49.144Z,4.28
2022-09-28T16:58:17.004Z,4.88
2022-09-28T17:00:46.084Z,4.72
2022-09-28T17:03:15.784Z,5.50
2022-09-28T17:05:44.119Z,5.43
2022-09-28T17:08:15.589Z,5.90
2022-09-28T17:11:09.731Z,5.55
2022-09-28T17:13:36.102Z,5.05
2022-09-28T17:16:08.414Z,6.10
2022-09-28T17:18:37.832Z,6.13
2022-09-28T17:21:10.818Z,5.18
2022-09-28T17:23:39.022Z,4.43
2022-09-28T17:26:07.220Z,4.63
2022-09-28T17:28:36.711Z,4.22
2022-09-28T17:31:07.976Z,4.28
2022-09-28T17:33:35.718Z,3.97
2022-09-28T17:36:04.661Z,3.75
2022-09-28T17:38:34.525Z,4.70
2022-09-28T17:41:02.295Z,4.65
2022-09-28T17:43:30.210Z,4.63
2022-09-28T17:45:58.105Z,5.38
2022-09-28T17:48:27.799Z,4.72
2022-09-28T17:50:55.562Z,4.53
2022-09-28T17:53:23.245Z,4.10
2022-09-28T17:55:51.380Z,4.82
2022-09-28T17:58:21.062Z,6.18
2022-09-28T18:00:51.139Z,6.70
2022-09-28T18:03:21.072Z,5.30
2022-09-28T18:05:59.054Z,5.20
2022-09-28T18:08:26.838Z,5.78
2022-09-28T18:10:56.839Z,6.40
2022-09-28T18:13:24.741Z,6.88
2022-09-28T18:15:52.723Z,4.95
2022-09-28T18:18:20.891Z,5.30
2022-09-28T18:20:50.305Z,6.15
2022-09-28T18:23:18.292Z,5.38
2022-09-28T18:25:47.367Z,5.72
2022-09-28T18:28:15.832Z,6.47
2022-09-28T18:30:45.548Z,7.22
2022-09-28T18:33:14.815Z,6.40
2022-09-28T18:35:50.673Z,5.72
2022-09-28T18:38:20.218Z,6.03
2022-09-28T18:40:48.499Z,4.63
2022-09-28T18:43:16.722Z,5.32
2022-09-28T18:45:44.660Z,4.43
2022-09-28T18:48:12.477Z,5.20
2022-09-28T18:50:42.689Z,4.80
2022-09-28T18:53:13.409Z,5.05
2022-09-28T18:55:44.511Z,5.85
2022-09-28T18:58:12.861Z,5.72
2022-09-28T19:00:42.414Z,6.18
2022-09-28T19:03:14.281Z,6.03
2022-09-28T19:05:42.942Z,6.35
2022-09-28T19:08:11.684Z,6.82
2022-09-28T19:10:39.462Z,7.82
2022-09-28T19:13:08.535Z,6.68
2022-09-28T19:15:36.337Z,7.03
2022-09-28T19:18:04.229Z,6.43
2022-09-28T19:20:33.617Z,7.10
2022-09-28T19:23:01.532Z,6.40
2022-09-28T19:25:29.416Z,8.35
2022-09-28T19:27:57.828Z,8.45
2022-09-28T19:30:27.022Z,8.23
2022-09-28T19:32:54.790Z,10.25
2022-09-28T19:35:22.674Z,7.40
2022-09-28T19:37:51.330Z,7.15
2022-09-28T19:40:19.366Z,6.55
2022-09-28T19:42:47.141Z,7.60
2022-09-28T19:45:14.931Z,6.60
2022-09-28T19:47:44.110Z,7.65
2022-09-28T19:50:11.972Z,7.68
2022-09-28T19:52:39.706Z,7.78
2022-09-28T19:55:08.444Z,6.75
2022-09-28T19:57:36.247Z,6.63
2022-09-28T20:00:08.045Z,5.97
2022-09-28T20:02:36.113Z,6.18
2022-09-28T20:05:05.872Z,7.15
2022-09-28T20:07:34.693Z,6.22
2022-09-28T20:10:02.398Z,5.65
2022-09-28T20:12:30.160Z,6.57
2022-09-28T20:14:58.187Z,6.85
2022-09-28T20:17:26.094Z,6.60
2022-09-28T20:19:55.932Z,6.80
2022-09-28T20:22:25.131Z,6.03
2022-09-28T20:24:52.855Z,6.72
2022-09-28T20:27:25.496Z,6.38
2022-09-28T20:29:54.202Z,7.30
2022-09-28T20:32:22.079Z,7.50
2022-09-28T20:34:49.724Z,5.88
2022-09-28T20:37:17.861Z,5.68
2022-09-28T20:39:47.298Z,5.70
2022-09-28T20:42:15.469Z,7.00
2022-09-28T20:44:43.434Z,5.57
2022-09-28T20:47:11.549Z,5.25
2022-09-28T20:49:39.218Z,6.18
2022-09-28T20:52:06.876Z,6.72
2022-09-28T20:54:34.509Z,7.90
2022-09-28T20:57:17.213Z,9.02
2022-09-28T20:59:45.133Z,11.82
2022-09-28T21:02:13.753Z,9.23
2022-09-28T21:04:41.767Z,7.53
2022-09-28T21:07:09.946Z,8.52
2022-09-28T21:09:38.669Z,8.45
2022-09-28T21:12:09.130Z,6.55
2022-09-28T21:14:36.854Z,6.80
2022-09-28T21:17:04.618Z,6.20
2022-09-28T21:19:32.331Z,5.78
2022-09-28T21:22:00.048Z,6.00
2022-09-28T21:24:27.683Z,5.90
2022-09-28T21:26:55.918Z,6.10
2022-09-28T21:29:25.001Z,5.75
2022-09-28T21:31:52.677Z,5.93
2022-09-28T21:34:21.894Z,5.78
2022-09-28T21:36:52.450Z,6.28
2022-09-28T21:39:21.042Z,5.63
2022-09-28T21:41:51.128Z,5.80
2022-09-28T21:44:18.928Z,4.68
2022-09-28T21:46:48.249Z,5.78
2022-09-28T21:49:16.019Z,6.63
2022-09-28T21:51:46.885Z,4.57
2022-09-28T21:54:14.898Z,5.00
2022-09-28T21:56:42.666Z,4.63
2022-09-28T21:59:10.369Z,5.10
2022-09-28T22:01:38.082Z,4.75
2022-09-28T22:04:07.169Z,5.05
2022-09-28T22:06:35.312Z,4.68
2022-09-28T22:09:03.064Z,4.25
2022-09-28T22:11:30.858Z,5.28
2022-09-28T22:13:59.894Z,3.47
2022-09-28T22:16:29.940Z,4.55
2022-09-28T22:19:00.425Z,4.53
2022-09-28T22:21:31.703Z,4.32
2022-09-28T22:24:01.331Z,3.60
2022-09-28T22:26:31.585Z,4.70
2022-09-28T22:29:00.728Z,3.78
2022-09-28T22:31:31.329Z,4.43
2022-09-28T22:33:59.714Z,3.78
2022-09-28T22:36:29.477Z,4.25
2022-09-28T22:38:58.281Z,4.55
2022-09-28T22:41:26.518Z,5.07
2022-09-28T22:43:55.493Z,4.20
2022-09-28T22:46:24.949Z,3.92
2022-09-28T22:48:57.288Z,4.38
2022-09-28T22:51:26.925Z,4.15
2022-09-28T22:53:56.403Z,4.35
2022-09-28T22:56:24.635Z,5.63
2022-09-28T22:58:52.547Z,4.50
2022-09-28T23:01:22.283Z,4.43
2022-09-28T23:03:51.169Z,4.03
2022-09-28T23:06:21.139Z,4.70
2022-09-28T23:08:50.443Z,5.05
2022-09-28T23:11:19.968Z,3.75
2022-09-28T23:13:50.309Z,3.90
2022-09-28T23:16:18.187Z,3.75
2022-09-28T23:18:46.071Z,5.10
2022-09-28T23:21:16.052Z,3.75
2022-09-28T23:23:44.028Z,4.03
2022-09-28T23:26:13.282Z,3.40
2022-09-28T23:28:42.433Z,3.72
2022-09-28T23:31:11.540Z,3.70
2022-09-28T23:33:39.313Z,3.83
2022-09-28T23:36:07.638Z,3.20
2022-09-28T23:38:35.681Z,4.22
2022-09-28T23:41:03.421Z,4.72
2022-09-28T23:43:31.078Z,4.55
2022-09-28T23:46:00.231Z,4.15
2022-09-28T23:48:28.010Z,4.10
2022-09-28T23:50:55.779Z,3.20
2022-09-28T23:53:24.688Z,3.60
2022-09-28T23:55:52.642Z,4.00
2022-09-28T23:58:20.474Z,4.18
